Time;durP1;ratioP1;P1;durP2;ratioP2;P2;SDS_P1;SDS_P2;PMS_P1;PMS_P2;Temp;Humidity;BMP_temperature;BMP_pressure;BME280_temperature;BME280_humidity;BME280_pressure;Samples;Min_cycle;Max_cycle;Signal;HPM_P1;HPM_P2
2022/05/11 00:02:06;;;;;;;6.88;4.15;;;13.80;99.90;;;;;;5032600;28;20544;-69
2022/05/11 00:04:32;;;;;;;6.25;4.20;;;13.80;99.90;;;;;;5049611;28;20045;-69
2022/05/11 00:06:58;;;;;;;5.90;4.30;;;13.80;99.90;;;;;;5027879;28;20047;-69
2022/05/11 00:09:24;;;;;;;7.95;4.03;;;13.80;99.90;;;;;;5026916;28;20109;-69
2022/05/11 00:11:49;;;;;;;8.10;4.13;;;13.80;99.90;;;;;;5044966;28;20044;-69
2022/05/11 00:14:15;;;;;;;7.43;4.18;;;13.80;99.90;;;;;;5029503;28;20163;-69
2022/05/11 00:16:41;;;;;;;10.50;4.53;;;13.80;99.90;;;;;;5028670;28;20045;-69
2022/05/11 00:19:07;;;;;;;8.52;4.60;;;13.70;99.90;;;;;;5025706;28;20048;-69
2022/05/11 00:21:33;;;;;;;7.43;4.25;;;13.70;99.90;;;;;;5033029;28;20049;-69
2022/05/11 00:23:59;;;;;;;7.40;3.72;;;13.70;99.90;;;;;;5032639;28;20037;-69
2022/05/11 00:26:25;;;;;;;7.03;3.63;;;13.70;99.90;;;;;;5007809;28;20057;-69
2022/05/11 00:28:51;;;;;;;7.25;3.95;;;13.70;99.90;;;;;;5024126;28;20084;-69
2022/05/11 00:31:17;;;;;;;6.80;4.05;;;13.60;99.90;;;;;;5019834;28;20473;-69
2022/05/11 00:33:43;;;;;;;7.22;3.38;;;13.60;99.90;;;;;;5023014;28;20081;-69
2022/05/11 00:36:11;;;;;;;9.25;4.32;;;13.60;99.90;;;;;;5027292;28;20462;-69
2022/05/11 00:38:37;;;;;;;5.82;4.05;;;13.60;99.90;;;;;;5014980;28;20045;-69
2022/05/11 00:41:03;;;;;;;6.07;3.97;;;13.60;99.90;;;;;;5046263;28;20072;-69
2022/05/11 00:43:41;;;;;;;7.20;3.75;;;13.60;99.90;;;;;;5022990;28;20118;-70
2022/05/11 00:46:19;;;;;;;6.28;3.80;;;13.60;99.90;;;;;;5029865;28;20123;-70
2022/05/11 00:51:56;;;;;;;7.40;4.03;;;13.60;99.90;;;;;;5049033;28;20064;-69
2022/05/11 00:54:23;;;;;;;6.88;4.30;;;13.60;99.90;;;;;;5028218;28;20045;-69
2022/05/11 00:56:53;;;;;;;9.13;5.07;;;13.50;99.90;;;;;;5023137;28;20071;-70
2022/05/11 00:59:25;;;;;;;6.28;4.43;;;13.50;99.90;;;;;;5045662;28;20046;-70
2022/05/11 01:01:52;;;;;;;10.27;4.40;;;13.50;99.90;;;;;;5051307;28;20041;-69
2022/05/11 01:04:20;;;;;;;8.25;4.88;;;13.50;99.90;;;;;;5019406;28;20048;-69
2022/05/11 01:06:47;;;;;;;9.18;4.93;;;13.50;99.90;;;;;;5028278;28;20064;-69
2022/05/11 01:09:13;;;;;;;8.63;4.72;;;13.50;99.90;;;;;;5029050;28;20049;-69
2022/05/11 01:11:49;;;;;;;7.53;4.60;;;13.50;99.90;;;;;;5048992;28;20044;-69
2022/05/11 01:14:19;;;;;;;5.65;4.40;;;13.50;99.90;;;;;;5047512;28;20043;-68
2022/05/11 01:16:46;;;;;;;7.85;4.47;;;13.50;99.90;;;;;;5031097;28;20049;-68
2022/05/11 01:19:30;;;;;;;6.22;4.00;;;13.50;99.90;;;;;;5024571;28;20038;-69
2022/05/11 01:22:25;;;;;;;6.63;3.42;;;13.50;99.90;;;;;;5030966;28;20127;-69
2022/05/11 01:24:50;;;;;;;;;;;13.50;99.90;;;;;;5002427;28;20080;-69
2022/05/11 01:27:37;;;;;;;7.68;3.63;;;13.40;99.90;;;;;;5027005;28;20006;-69
2022/05/11 01:30:10;;;;;;;8.07;4.35;;;13.40;99.90;;;;;;5018878;28;20448;-69
2022/05/11 01:32:37;;;;;;;6.60;3.97;;;13.40;99.90;;;;;;5042822;28;20199;-69
2022/05/11 01:35:14;;;;;;;4.95;3.90;;;13.40;99.90;;;;;;5029118;28;20049;-69
2022/05/11 01:37:49;;;;;;;6.75;4.47;;;13.40;99.90;;;;;;5035941;28;20041;-69
2022/05/11 01:40:15;;;;;;;7.38;4.28;;;13.50;99.90;;;;;;5044222;28;20120;-69
2022/05/11 01:42:41;;;;;;;5.97;4.05;;;13.40;99.90;;;;;;5039768;28;20057;-69
2022/05/11 01:45:07;;;;;;;7.30;4.35;;;13.40;99.90;;;;;;5030961;28;20049;-69
2022/05/11 01:47:33;;;;;;;7.32;4.65;;;13.40;99.90;;;;;;5039930;28;20140;-69
2022/05/11 01:49:59;;;;;;;6.15;4.50;;;13.40;99.90;;;;;;5048859;28;20432;-69
2022/05/11 01:52:24;;;;;;;6.07;4.45;;;13.40;99.90;;;;;;5016842;28;20052;-69
2022/05/11 01:54:50;;;;;;;8.13;4.80;;;13.40;99.90;;;;;;5030073;28;20104;-69
2022/05/11 01:57:16;;;;;;;8.05;4.60;;;13.40;99.90;;;;;;5021205;28;20053;-69
2022/05/11 01:59:41;;;;;;;7.38;4.38;;;13.50;99.90;;;;;;5049518;28;20044;-69
2022/05/11 02:02:07;;;;;;;6.68;4.63;;;13.40;99.90;;;;;;5051278;28;20094;-69
2022/05/11 02:10:01;;;;;;;6.78;4.68;;;13.40;99.90;;;;;;5028030;28;20110;-69
2022/05/11 02:12:27;;;;;;;6.60;4.88;;;13.40;99.90;;;;;;5028228;28;20101;-69
2022/05/11 02:14:52;;;;;;;12.38;4.97;;;13.40;99.90;;;;;;5043709;28;20531;-69
2022/05/11 02:17:20;;;;;;;6.15;4.80;;;13.40;99.90;;;;;;5026117;28;20035;-69
2022/05/11 02:19:46;;;;;;;7.50;4.80;;;13.40;99.90;;;;;;5027815;28;20433;-69
2022/05/11 02:22:11;;;;;;;6.20;4.97;;;13.40;99.90;;;;;;5034119;28;20047;-69
2022/05/11 02:24:37;;;;;;;7.60;4.60;;;13.40;99.90;;;;;;5027718;28;20454;-69
2022/05/11 02:27:04;;;;;;;8.02;4.80;;;13.40;99.90;;;;;;5024074;28;20385;-69
2022/05/11 02:29:30;;;;;;;7.18;5.10;;;13.40;99.90;;;;;;5041042;28;20044;-69
2022/05/11 02:31:55;;;;;;;7.80;4.80;;;13.40;99.90;;;;;;5022782;28;20042;-69
2022/05/11 02:37:05;;;;;;;6.43;4.57;;;13.50;99.90;;;;;;5028757;28;20500;-69
2022/05/11 02:39:31;;;;;;;7.45;5.07;;;13.40;99.90;;;;;;5044038;28;20303;-69
2022/05/11 02:41:56;;;;;;;9.43;5.15;;;13.50;99.90;;;;;;5043340;28;20079;-69
2022/05/11 02:44:22;;;;;;;7.90;5.18;;;13.50;99.90;;;;;;5026586;28;20045;-69
2022/05/11 02:46:49;;;;;;;7.15;5.05;;;13.50;99.90;;;;;;5012178;28;20132;-69
2022/05/11 02:49:15;;;;;;;7.15;4.78;;;13.40;99.90;;;;;;5028194;28;20051;-69
2022/05/11 02:51:40;;;;;;;5.60;3.83;;;13.50;99.90;;;;;;5027464;28;20044;-69
2022/05/11 02:54:06;;;;;;;8.75;5.00;;;13.40;99.90;;;;;;5027993;28;20116;-69
2022/05/11 02:56:31;;;;;;;7.43;3.83;;;13.50;99.90;;;;;;5047033;28;20508;-69
2022/05/11 02:58:57;;;;;;;6.20;3.80;;;13.50;99.90;;;;;;5024586;28;20454;-69
2022/05/11 03:01:23;;;;;;;6.45;4.20;;;13.50;99.90;;;;;;5027371;28;20460;-69
2022/05/11 03:03:48;;;;;;;7.13;4.18;;;13.50;99.90;;;;;;5038525;28;20045;-69
2022/05/11 03:06:14;;;;;;;7.90;4.07;;;13.50;99.90;;;;;;5022369;28;20079;-69
2022/05/11 03:08:40;;;;;;;6.85;3.85;;;13.50;99.90;;;;;;5022144;28;20042;-69
2022/05/11 03:11:05;;;;;;;6.28;3.55;;;13.50;99.90;;;;;;5024382;28;20526;-69
2022/05/11 03:13:32;;;;;;;8.07;4.05;;;13.50;99.90;;;;;;5036245;28;20394;-68
2022/05/11 03:15:57;;;;;;;6.85;3.60;;;13.50;99.90;;;;;;5022639;28;20065;-69
2022/05/11 03:18:23;;;;;;;5.07;3.33;;;13.50;99.90;;;;;;5037394;28;20079;-68
2022/05/11 03:20:49;;;;;;;6.45;3.20;;;13.50;99.90;;;;;;5018206;28;20029;-68
2022/05/11 03:23:15;;;;;;;4.90;3.40;;;13.50;99.90;;;;;;5036558;28;20114;-68
2022/05/11 03:25:41;;;;;;;4.35;3.20;;;13.50;99.90;;;;;;5040255;28;20042;-68
2022/05/11 03:28:06;;;;;;;8.43;3.17;;;13.50;99.90;;;;;;5021226;28;20219;-68
2022/05/11 03:30:32;;;;;;;6.90;2.85;;;13.50;99.90;;;;;;5045334;28;20419;-69
2022/05/11 03:35:43;;;;;;;10.07;3.27;;;13.50;99.90;;;;;;5025170;28;20048;-69
2022/05/11 03:38:09;;;;;;;10.25;4.07;;;13.50;99.90;;;;;;5023959;28;20197;-69
2022/05/11 03:40:37;;;;;;;7.53;3.33;;;13.50;99.90;;;;;;5025148;28;20128;-68
2022/05/11 03:43:03;;;;;;;5.65;3.08;;;13.50;99.90;;;;;;5029321;28;20042;-68
2022/05/11 03:45:29;;;;;;;5.93;3.22;;;13.50;99.90;;;;;;5008361;28;20168;-68
2022/05/11 03:47:55;;;;;;;5.82;3.10;;;13.60;99.90;;;;;;5043993;28;20121;-68
2022/05/11 03:50:22;;;;;;;5.25;3.03;;;13.60;99.90;;;;;;5009168;28;20080;-68
2022/05/11 03:52:53;;;;;;;7.47;3.42;;;13.50;99.90;;;;;;5046447;28;20044;-69
2022/05/11 03:55:20;;;;;;;6.68;3.08;;;13.50;99.90;;;;;;5013146;28;20139;-69
2022/05/11 03:57:45;;;;;;;6.40;3.42;;;13.50;99.90;;;;;;5028860;28;20558;-69
2022/05/11 04:00:15;;;;;;;6.65;3.65;;;13.50;99.90;;;;;;5047007;28;20049;-68
2022/05/11 04:02:41;;;;;;;6.78;3.15;;;13.60;99.90;;;;;;5026120;28;20133;-69
2022/05/11 04:05:09;;;;;;;7.47;3.30;;;13.60;99.90;;;;;;5042897;28;20092;-69
2022/05/11 04:07:35;;;;;;;5.85;3.45;;;13.60;99.90;;;;;;5030493;28;20501;-68
2022/05/11 04:10:02;;;;;;;6.10;3.40;;;13.60;99.90;;;;;;5043053;28;20041;-68
2022/05/11 04:12:29;;;;;;;8.68;3.38;;;13.60;99.90;;;;;;5044491;28;20033;-68
2022/05/11 04:14:58;;;;;;;4.28;3.08;;;13.60;99.90;;;;;;5029501;28;20045;-68
2022/05/11 04:17:25;;;;;;;4.93;2.85;;;13.60;99.90;;;;;;5009788;28;20045;-68
2022/05/11 04:19:50;;;;;;;6.22;3.25;;;13.60;99.90;;;;;;5007971;28;20385;-69
2022/05/11 04:22:16;;;;;;;6.22;3.50;;;13.60;99.90;;;;;;5048431;28;20043;-69
2022/05/11 04:24:42;;;;;;;95.68;77.60;;;13.60;99.90;;;;;;5035410;28;20566;-68
2022/05/11 04:27:07;;;;;;;14.10;10.32;;;13.60;99.90;;;;;;5024823;28;20032;-68
2022/05/11 04:29:36;;;;;;;6.28;3.70;;;13.70;99.90;;;;;;5032116;28;20045;-69
2022/05/11 04:32:01;;;;;;;6.18;3.38;;;13.70;99.90;;;;;;5042828;28;20127;-68
2022/05/11 04:34:28;;;;;;;7.20;3.70;;;13.70;99.90;;;;;;5030751;28;20499;-68
2022/05/11 04:36:53;;;;;;;6.57;3.35;;;13.70;99.90;;;;;;5013898;28;20045;-68
2022/05/11 04:39:19;;;;;;;7.57;3.55;;;13.70;99.90;;;;;;5029805;28;20029;-68
2022/05/11 04:41:45;;;;;;;9.00;3.83;;;13.70;99.90;;;;;;5027859;28;20069;-69
2022/05/11 04:44:11;;;;;;;7.80;3.88;;;13.80;99.90;;;;;;5045001;28;20107;-69
2022/05/11 04:46:38;;;;;;;7.57;3.80;;;13.80;99.90;;;;;;5045112;28;20465;-68
2022/05/11 04:49:16;;;;;;;8.82;4.95;;;13.80;99.90;;;;;;5046121;28;20037;-69
2022/05/11 04:51:59;;;;;;;9.10;4.80;;;13.80;99.90;;;;;;5044927;28;20094;-69
2022/05/11 04:54:25;;;;;;;8.27;4.50;;;13.80;99.90;;;;;;5025967;28;20046;-69
2022/05/11 04:56:51;;;;;;;9.65;5.07;;;13.90;99.90;;;;;;5028758;28;20489;-69
2022/05/11 04:59:17;;;;;;;8.25;4.63;;;13.90;99.90;;;;;;5044184;28;20099;-68
2022/05/11 05:01:42;;;;;;;11.65;4.55;;;13.90;99.90;;;;;;5029026;28;20145;-68
2022/05/11 05:04:09;;;;;;;9.13;4.72;;;13.90;99.90;;;;;;5045743;28;20163;-69
2022/05/11 05:06:34;;;;;;;8.73;4.88;;;13.90;99.90;;;;;;5024342;28;20041;-69
2022/05/11 05:09:01;;;;;;;10.85;4.75;;;13.90;99.90;;;;;;5024215;28;20503;-69
2022/05/11 05:11:27;;;;;;;8.13;4.43;;;13.90;99.90;;;;;;5025483;28;20095;-69
2022/05/11 05:13:53;;;;;;;8.18;6.00;;;13.90;99.90;;;;;;5031359;28;20429;-69
2022/05/11 05:16:18;;;;;;;12.55;5.20;;;14.00;99.90;;;;;;5040913;28;20141;-69
2022/05/11 05:18:44;;;;;;;10.18;4.70;;;14.10;99.90;;;;;;5043022;28;20045;-68
2022/05/11 05:21:09;;;;;;;9.02;4.93;;;14.10;99.90;;;;;;5029016;28;20124;-68
2022/05/11 05:23:35;;;;;;;6.68;4.60;;;14.10;99.90;;;;;;5025006;28;20041;-69
2022/05/11 05:26:02;;;;;;;9.13;4.90;;;14.20;99.90;;;;;;5045677;28;20033;-69
2022/05/11 05:31:16;;;;;;;9.18;4.78;;;14.30;99.90;;;;;;5044291;28;20099;-69
2022/05/11 05:33:43;;;;;;;8.90;4.47;;;14.40;99.90;;;;;;5023738;28;20440;-69
2022/05/11 05:36:10;;;;;;;10.13;5.13;;;14.40;99.90;;;;;;5048871;28;20443;-68
2022/05/11 05:38:38;;;;;;;7.20;5.15;;;14.50;99.90;;;;;;5042907;28;20064;-68
2022/05/11 05:41:05;;;;;;;10.57;4.72;;;14.60;99.90;;;;;;5012758;28;20412;-68
2022/05/11 05:43:31;;;;;;;8.60;4.60;;;14.60;99.90;;;;;;5027485;28;20489;-68
2022/05/11 05:45:57;;;;;;;8.13;4.30;;;14.70;99.90;;;;;;5046172;28;20068;-68
2022/05/11 05:48:23;;;;;;;10.48;4.45;;;14.70;99.90;;;;;;5032987;28;20390;-68
2022/05/11 05:50:49;;;;;;;9.07;4.93;;;14.80;99.90;;;;;;5042875;28;20485;-68
2022/05/11 05:53:19;;;;;;;8.77;4.50;;;14.80;99.90;;;;;;5027068;28;20040;-68
2022/05/11 05:55:49;;;;;;;11.48;4.70;;;14.80;99.90;;;;;;5040983;28;20033;-68
2022/05/11 05:58:16;;;;;;;10.30;4.70;;;14.80;99.90;;;;;;5031533;28;20083;-68
2022/05/11 06:00:43;;;;;;;10.90;4.80;;;14.90;99.90;;;;;;5038427;28;20029;-68
2022/05/11 06:03:09;;;;;;;7.55;4.18;;;14.90;99.90;;;;;;5014375;28;20505;-68
2022/05/11 06:05:35;;;;;;;10.82;4.30;;;14.90;99.90;;;;;;5018599;28;20049;-68
2022/05/11 06:08:00;;;;;;;9.13;3.67;;;15.00;99.90;;;;;;5024924;28;20122;-68
2022/05/11 06:10:26;;;;;;;8.65;3.92;;;15.00;99.90;;;;;;5030836;28;20094;-68
2022/05/11 06:12:52;;;;;;;10.40;3.78;;;15.00;99.90;;;;;;5028091;28;20506;-68
2022/05/11 06:15:18;;;;;;;7.28;3.70;;;15.00;99.90;;;;;;5026809;28;20247;-68
2022/05/11 06:17:44;;;;;;;6.75;3.60;;;15.10;99.90;;;;;;5046284;28;20442;-68
2022/05/11 06:20:10;;;;;;;7.70;3.95;;;15.10;99.90;;;;;;5048769;28;20044;-67
2022/05/11 06:22:37;;;;;;;8.38;4.22;;;15.20;99.90;;;;;;5029069;28;20505;-68
2022/05/11 06:25:03;;;;;;;9.10;4.30;;;15.20;99.90;;;;;;5045056;28;20037;-68
2022/05/11 06:27:29;;;;;;;7.28;3.13;;;15.30;99.90;;;;;;5045102;28;20045;-68
2022/05/11 06:30:00;;;;;;;8.57;3.80;;;15.30;99.90;;;;;;5048027;28;20079;-68
2022/05/11 06:32:26;;;;;;;9.80;3.47;;;15.40;99.90;;;;;;5027001;28;20945;-68
2022/05/11 06:34:53;;;;;;;8.05;3.80;;;15.50;99.90;;;;;;5022329;28;20065;-68
2022/05/11 06:37:20;;;;;;;7.88;4.13;;;15.60;99.90;;;;;;5045927;28;20094;-68
2022/05/11 06:39:45;;;;;;;8.75;3.30;;;15.70;99.90;;;;;;5021518;28;20049;-68
2022/05/11 06:42:13;;;;;;;6.72;3.20;;;15.80;99.90;;;;;;5025600;28;20044;-68
2022/05/11 06:44:39;;;;;;;8.63;2.92;;;15.90;99.90;;;;;;5045878;28;20120;-68
2022/05/11 06:47:05;;;;;;;5.90;3.08;;;16.10;99.90;;;;;;5031640;28;20056;-68
2022/05/11 06:49:32;;;;;;;8.57;2.95;;;16.20;99.90;;;;;;5039127;28;20094;-68
2022/05/11 06:51:58;;;;;;;7.50;2.85;;;16.20;99.90;;;;;;5023541;28;20057;-68
2022/05/11 06:59:54;;;;;;;9.48;2.70;;;16.50;99.90;;;;;;5040676;28;20048;-69
2022/05/11 07:02:20;;;;;;;6.93;2.58;;;16.60;99.90;;;;;;5013031;28;20045;-69
2022/05/11 07:04:46;;;;;;;6.68;2.42;;;16.60;99.90;;;;;;5021708;28;20056;-69
2022/05/11 07:07:12;;;;;;;5.97;2.50;;;16.70;99.90;;;;;;5027486;28;20094;-69
2022/05/11 07:09:39;;;;;;;7.13;2.67;;;16.80;99.90;;;;;;5026630;28;20128;-69
2022/05/11 07:12:17;;;;;;;5.80;2.50;;;16.80;99.90;;;;;;5042875;28;20045;-69
2022/05/11 07:14:57;;;;;;;8.20;2.38;;;16.90;99.70;;;;;;5026268;28;20052;-69
2022/05/11 07:17:34;;;;;;;9.55;2.30;;;17.10;99.30;;;;;;5027564;28;20399;-68
2022/05/11 07:20:06;;;;;;;8.88;2.35;;;17.20;98.70;;;;;;5028941;28;20033;-69
2022/05/11 07:22:32;;;;;;;11.02;2.53;;;17.30;98.10;;;;;;5026390;28;20068;-69
2022/05/11 07:24:58;;;;;;;7.40;2.13;;;17.40;97.70;;;;;;5025274;28;20056;-69
2022/05/11 07:27:25;;;;;;;5.55;1.80;;;17.40;97.00;;;;;;5039694;28;20489;-68
2022/05/11 07:29:52;;;;;;;7.45;1.80;;;17.40;96.80;;;;;;5045498;28;20052;-68
2022/05/11 07:32:17;;;;;;;7.80;1.60;;;17.40;96.00;;;;;;5040850;28;20474;-68
2022/05/11 07:34:44;;;;;;;7.25;1.95;;;17.40;95.50;;;;;;5022289;28;20123;-68
2022/05/11 07:37:10;;;;;;;11.00;1.92;;;17.40;94.80;;;;;;5040380;28;20044;-69
2022/05/11 07:39:36;;;;;;;7.03;1.30;;;17.40;94.50;;;;;;5041800;28;20048;-69
2022/05/11 07:42:02;;;;;;;6.38;1.55;;;17.60;94.20;;;;;;5018559;28;20140;-69
2022/05/11 07:44:27;;;;;;;8.30;1.48;;;17.90;94.10;;;;;;5026088;28;20067;-69
2022/05/11 07:46:53;;;;;;;7.22;1.50;;;18.20;93.70;;;;;;5013129;28;20049;-69
2022/05/11 07:49:20;;;;;;;7.20;1.63;;;18.40;92.20;;;;;;5024120;28;20033;-69
2022/05/11 07:51:46;;;;;;;7.30;1.50;;;18.30;92.30;;;;;;5007460;28;20062;-69
2022/05/11 07:54:13;;;;;;;8.30;1.45;;;18.30;92.10;;;;;;5024500;28;20041;-69
2022/05/11 08:02:08;;;;;;;;;;;18.10;91.40;;;;;;5025514;28;20500;-69
2022/05/11 08:04:35;;;;;;;5.47;1.05;;;18.10;90.60;;;;;;5029617;28;19920;-68
2022/05/11 08:07:02;;;;;;;8.00;1.40;;;18.20;92.20;;;;;;5049625;28;20045;-68
2022/05/11 08:09:28;;;;;;;7.15;1.58;;;18.50;91.70;;;;;;5030278;28;20112;-69
2022/05/11 08:11:55;;;;;;;8.98;1.38;;;18.80;91.40;;;;;;5026728;28;20137;-68
2022/05/11 08:14:24;;;;;;;7.15;1.70;;;19.40;91.20;;;;;;5026858;28;20523;-68
2022/05/11 08:16:53;;;;;;;7.90;1.52;;;20.00;90.20;;;;;;5041147;28;20484;-68
2022/05/11 08:19:23;;;;;;;8.07;1.60;;;20.70;88.30;;;;;;5042148;28;20488;-69
2022/05/11 08:21:51;;;;;;;6.82;1.77;;;21.20;81.70;;;;;;5024436;28;20077;-69
2022/05/11 08:24:17;;;;;;;6.63;1.65;;;21.40;79.70;;;;;;5041711;28;20120;-69
2022/05/11 08:26:46;;;;;;;6.28;1.25;;;21.50;77.20;;;;;;5028794;28;20048;-69
2022/05/11 08:33:19;;;;;;;5.60;1.17;;;21.80;77.90;;;;;;5004322;28;20053;-69
2022/05/11 08:34:43;;;;;;;5.90;1.85;;;22.30;75.00;;;;;;5038627;28;20144;-69
2022/05/11 08:37:09;;;;;;;7.13;1.30;;;22.50;71.20;;;;;;5048164;28;20117;-69
2022/05/11 08:39:35;;;;;;;6.15;1.33;;;22.50;70.80;;;;;;5020667;28;20107;-69
2022/05/11 08:42:02;;;;;;;6.65;1.55;;;22.60;70.20;;;;;;5039613;28;20048;-69
2022/05/11 08:44:32;;;;;;;8.20;1.63;;;22.90;69.20;;;;;;5027246;28;20056;-69
2022/05/11 08:47:31;;;;;;;6.45;1.55;;;23.00;67.00;;;;;;5044789;28;20052;-69
2022/05/11 08:50:12;;;;;;;7.72;1.40;;;22.90;64.90;;;;;;5039982;28;20065;-69
2022/05/11 08:52:47;;;;;;;6.97;1.27;;;22.70;65.50;;;;;;5046224;28;20611;-69
2022/05/11 08:55:32;;;;;;;6.20;1.65;;;22.60;64.70;;;;;;5026338;28;20057;-69
2022/05/11 08:58:02;;;;;;;;;;;22.50;65.10;;;;;;5045812;28;20040;-69
2022/05/11 09:00:28;;;;;;;5.97;1.50;;;22.50;65.60;;;;;;5028716;28;19932;-69
2022/05/11 09:02:59;;;;;;;8.73;1.65;;;22.50;64.40;;;;;;5043960;28;20041;-69
2022/05/11 09:05:28;;;;;;;8.13;1.92;;;22.70;63.40;;;;;;5045386;28;20087;-69
2022/05/11 09:07:55;;;;;;;5.78;1.60;;;22.80;62.90;;;;;;5046743;28;20041;-69
2022/05/11 09:10:29;;;;;;;5.45;1.80;;;22.90;62.40;;;;;;5049475;28;20392;-69
2022/05/11 09:12:59;;;;;;;9.52;1.80;;;23.10;62.10;;;;;;5052635;28;20127;-69
2022/05/11 09:16:02;;;;;;;7.30;1.98;;;23.30;63.30;;;;;;5032191;28;20068;-69
2022/05/11 09:18:30;;;;;;;7.80;1.80;;;23.80;60.60;;;;;;4946006;28;20142;-69
2022/05/11 09:20:57;;;;;;;8.25;1.70;;;23.80;61.10;;;;;;5035166;28;20179;-69
2022/05/11 09:23:36;;;;;;;9.50;1.70;;;23.70;60.30;;;;;;5047983;28;20155;-70
2022/05/11 09:26:11;;;;;;;7.43;1.88;;;23.80;58.50;;;;;;5047191;28;20052;-69
2022/05/11 09:28:40;;;;;;;7.47;1.73;;;23.80;59.20;;;;;;5044877;28;20037;-69
2022/05/11 09:31:12;;;;;;;7.47;1.52;;;24.10;60.10;;;;;;5046036;28;20040;-70
2022/05/11 09:34:03;;;;;;;6.13;1.52;;;24.60;60.90;;;;;;5045821;28;20056;-70
2022/05/11 09:36:41;;;;;;;6.70;1.40;;;24.90;58.00;;;;;;5037747;28;20068;-70
2022/05/11 09:39:17;;;;;;;6.78;1.33;;;25.00;56.40;;;;;;5019947;28;20501;-70
2022/05/11 09:41:49;;;;;;;5.07;1.23;;;25.00;56.20;;;;;;5045263;28;20049;-69
2022/05/11 09:44:41;;;;;;;5.95;1.00;;;24.60;54.10;;;;;;5041739;28;20029;-69
2022/05/11 09:47:27;;;;;;;14.00;1.10;;;24.30;54.00;;;;;;5020701;28;20079;-69
2022/05/11 09:50:13;;;;;;;5.57;1.30;;;24.10;53.30;;;;;;5044536;28;20038;-69
2022/05/11 09:52:40;;;;;;;6.60;1.27;;;24.20;55.10;;;;;;5036100;28;20053;-69
2022/05/11 09:55:35;;;;;;;3.75;0.70;;;24.40;55.40;;;;;;5030429;28;20037;-69
2022/05/11 09:58:06;;;;;;;4.03;0.88;;;24.20;52.50;;;;;;5012932;28;20048;-69
2022/05/11 10:00:43;;;;;;;4.85;1.17;;;24.00;54.20;;;;;;5044903;28;20045;-69
2022/05/11 10:03:25;;;;;;;6.75;1.08;;;23.90;52.30;;;;;;5050581;28;20040;-70
2022/05/11 10:05:52;;;;;;;3.50;0.90;;;23.70;53.90;;;;;;5030798;28;20072;-69
2022/05/11 10:08:32;;;;;;;4.35;0.80;;;23.60;53.40;;;;;;5028288;28;20076;-69
2022/05/11 10:11:29;;;;;;;4.60;0.80;;;23.50;53.10;;;;;;5045266;28;20073;-69
2022/05/11 10:22:40;;;;;;;6.40;1.42;;;23.30;55.00;;;;;;5045361;28;20103;-67
2022/05/11 10:25:15;;;;;;;5.75;1.20;;;23.40;55.80;;;;;;5042881;28;20119;-67
2022/05/11 10:28:21;;;;;;;6.45;1.20;;;23.40;54.60;;;;;;5042064;28;20041;-68
2022/05/11 10:31:02;;;;;;;6.57;1.35;;;23.10;54.20;;;;;;5036190;28;20092;-67
2022/05/11 10:34:00;;;;;;;6.38;1.10;;;22.80;55.30;;;;;;5036676;28;20046;-68
2022/05/11 10:36:38;;;;;;;4.43;1.23;;;22.80;55.80;;;;;;5001687;28;20440;-66
2022/05/11 10:39:42;;;;;;;4.80;1.15;;;23.20;56.50;;;;;;5037219;28;20041;-67
2022/05/11 10:42:14;;;;;;;9.60;1.40;;;23.40;55.00;;;;;;5041047;28;20128;-66
2022/05/11 10:45:02;;;;;;;6.45;1.20;;;23.10;55.20;;;;;;5043854;28;20048;-67
2022/05/11 10:47:47;;;;;;;4.80;1.20;;;23.20;55.70;;;;;;5026973;28;20098;-68
2022/05/11 10:50:22;;;;;;;6.45;1.00;;;23.50;56.40;;;;;;5047454;28;20041;-67
2022/05/11 10:53:08;;;;;;;5.38;1.13;;;24.00;54.80;;;;;;5024600;28;20042;-67
2022/05/11 10:55:56;;;;;;;7.30;1.40;;;24.50;54.00;;;;;;5045153;28;20041;-67
2022/05/11 10:58:51;;;;;;;5.20;1.08;;;24.70;53.20;;;;;;5044703;28;20120;-68
2022/05/11 11:01:17;;;;;;;6.80;1.40;;;24.80;53.10;;;;;;5039548;28;20088;-68
2022/05/11 11:03:58;;;;;;;5.38;1.10;;;25.20;54.00;;;;;;5043997;28;20068;-68
2022/05/11 11:07:16;;;;;;;5.38;1.30;;;25.60;53.40;;;;;;5024224;28;20045;-68
2022/05/11 11:10:26;;;;;;;6.05;1.30;;;26.00;51.30;;;;;;5039731;28;20045;-68
2022/05/11 11:13:37;;;;;;;5.22;1.42;;;26.00;50.10;;;;;;5015898;28;20053;-68
2022/05/11 11:16:05;;;;;;;7.03;1.23;;;25.80;50.40;;;;;;5041997;28;20044;-68
2022/05/11 11:18:39;;;;;;;4.57;1.40;;;25.90;50.40;;;;;;5031397;28;20091;-68
2022/05/11 11:21:08;;;;;;;8.25;1.60;;;26.00;50.80;;;;;;5029390;28;20076;-68
2022/05/11 11:23:38;;;;;;;5.72;1.83;;;26.30;50.50;;;;;;5017968;28;20110;-68
2022/05/11 11:26:27;;;;;;;6.78;1.33;;;26.50;50.10;;;;;;5037916;28;20052;-68
2022/05/11 11:28:56;;;;;;;6.40;1.33;;;26.70;49.40;;;;;;5025178;28;20445;-68
2022/05/11 11:31:31;;;;;;;4.22;1.38;;;26.80;49.40;;;;;;5041816;28;20037;-68
2022/05/11 11:34:05;;;;;;;5.72;1.02;;;26.90;49.20;;;;;;5040282;28;20255;-68
2022/05/11 11:36:35;;;;;;;6.07;1.40;;;26.60;47.90;;;;;;5037588;28;20099;-68
2022/05/11 11:39:03;;;;;;;7.78;1.75;;;26.40;47.60;;;;;;5041712;28;20040;-68
2022/05/11 11:41:53;;;;;;;6.50;1.10;;;26.40;48.80;;;;;;5042645;28;20060;-68
2022/05/11 11:44:26;;;;;;;6.03;1.40;;;26.50;48.60;;;;;;5040861;28;20037;-67
2022/05/11 11:46:52;;;;;;;5.70;1.38;;;26.60;48.40;;;;;;5045761;28;20516;-69
2022/05/11 11:49:18;;;;;;;8.63;1.63;;;26.40;47.80;;;;;;5025044;28;20045;-69
2022/05/11 11:52:02;;;;;;;7.28;1.38;;;26.10;48.50;;;;;;5041994;28;20432;-69
2022/05/11 11:54:27;;;;;;;;;;;25.80;47.80;;;;;;5039018;28;20083;-69
2022/05/11 11:56:54;;;;;;;6.18;1.65;;;25.20;49.00;;;;;;5043570;28;19962;-69
2022/05/11 11:59:23;;;;;;;6.47;1.40;;;25.40;49.90;;;;;;5042560;28;20069;-69
2022/05/11 12:01:52;;;;;;;7.30;1.35;;;25.40;48.90;;;;;;5040977;28;20457;-69
2022/05/11 12:04:34;;;;;;;7.97;1.77;;;25.30;49.70;;;;;;5021932;28;20042;-69
2022/05/11 12:15:39;;;;;;;6.47;1.70;;;26.20;49.90;;;;;;5042475;28;20051;-68
2022/05/11 12:18:36;;;;;;;7.90;2.25;;;26.50;49.40;;;;;;5032767;28;20382;-68
2022/05/11 12:21:06;;;;;;;8.02;1.50;;;26.70;47.90;;;;;;5004727;28;20053;-68
2022/05/11 12:23:39;;;;;;;6.97;1.40;;;26.60;48.30;;;;;;5024372;28;20057;-68
2022/05/11 12:26:11;;;;;;;7.68;2.00;;;26.50;49.30;;;;;;5018813;28;20048;-68
2022/05/11 12:28:42;;;;;;;8.82;1.90;;;26.70;49.00;;;;;;5041664;28;20645;-68
2022/05/11 12:31:09;;;;;;;6.43;1.38;;;26.70;48.20;;;;;;5037342;28;20130;-68
2022/05/11 12:33:39;;;;;;;8.48;1.63;;;26.80;48.80;;;;;;5037511;28;20191;-68
2022/05/11 12:36:06;;;;;;;8.95;1.92;;;26.90;48.10;;;;;;5025938;28;20493;-68
2022/05/11 12:38:33;;;;;;;9.40;1.85;;;26.90;47.70;;;;;;5041357;28;20033;-68
2022/05/11 12:41:08;;;;;;;9.85;1.77;;;26.90;47.60;;;;;;5039807;28;20438;-68
2022/05/11 12:43:39;;;;;;;8.32;1.40;;;26.90;47.60;;;;;;5045375;28;20120;-68
2022/05/11 12:46:11;;;;;;;6.72;1.35;;;26.90;47.80;;;;;;5043210;28;20055;-68
2022/05/11 12:48:44;;;;;;;7.05;1.60;;;26.90;47.40;;;;;;5046506;28;20033;-68
2022/05/11 12:51:14;;;;;;;9.55;1.52;;;26.80;47.40;;;;;;5049212;28;20156;-68
2022/05/11 12:53:50;;;;;;;10.02;1.60;;;26.90;47.10;;;;;;5048047;28;20037;-68
2022/05/11 12:56:43;;;;;;;12.20;1.95;;;26.80;46.60;;;;;;5046443;28;20075;-68
2022/05/11 12:59:28;;;;;;;6.82;1.42;;;26.90;48.00;;;;;;5043523;28;20101;-68
2022/05/11 13:02:32;;;;;;;6.57;1.65;;;27.10;48.60;;;;;;5031378;28;20211;-67
2022/05/11 13:04:59;;;;;;;;;;;27.10;47.50;;;;;;5008790;28;20401;-67
2022/05/11 13:07:41;;;;;;;7.75;1.88;;;26.80;46.80;;;;;;5015212;28;19940;-67
2022/05/11 13:10:09;;;;;;;7.78;1.63;;;26.70;47.00;;;;;;5052806;28;20084;-67
2022/05/11 13:12:37;;;;;;;5.53;1.50;;;26.50;47.00;;;;;;5026123;28;20041;-70
2022/05/11 13:15:03;;;;;;;7.10;1.90;;;26.20;48.00;;;;;;5044822;28;20028;-69
2022/05/11 13:17:40;;;;;;;9.65;1.90;;;26.30;49.30;;;;;;5026104;28;20052;-69
2022/05/11 13:20:27;;;;;;;7.68;2.00;;;26.30;47.80;;;;;;5046837;28;20037;-69
2022/05/11 13:22:59;;;;;;;10.93;1.90;;;26.20;48.50;;;;;;5047185;28;20034;-70
2022/05/11 13:25:49;;;;;;;8.27;1.88;;;25.90;48.20;;;;;;5046635;28;20041;-71
2022/05/11 13:28:26;;;;;;;8.55;1.75;;;25.50;49.20;;;;;;5027551;28;20091;-70
2022/05/11 13:30:56;;;;;;;7.38;1.55;;;25.10;49.30;;;;;;5028417;28;20049;-69
2022/05/11 13:33:36;;;;;;;9.60;2.00;;;24.80;48.80;;;;;;5010285;28;20041;-70
2022/05/11 13:36:29;;;;;;;11.57;2.08;;;24.60;50.40;;;;;;5027086;28;20037;-70
2022/05/11 13:39:13;;;;;;;8.80;2.25;;;24.50;51.60;;;;;;5025671;28;20086;-70
2022/05/11 13:41:45;;;;;;;8.90;2.15;;;24.40;51.10;;;;;;5028586;28;20080;-71
2022/05/11 13:44:13;;;;;;;7.57;1.90;;;24.30;51.50;;;;;;5025562;28;20066;-71
2022/05/11 13:49:42;;;;;;;11.20;2.25;;;24.10;51.90;;;;;;5043167;28;20060;-70
2022/05/11 13:52:30;;;;;;;9.40;2.03;;;24.00;52.90;;;;;;5026294;28;20069;-70
2022/05/11 13:54:56;;;;;;;12.68;2.47;;;24.10;53.30;;;;;;5030488;28;20046;-70
2022/05/11 13:57:27;;;;;;;10.93;2.17;;;23.90;52.00;;;;;;5023195;28;20037;-70
2022/05/11 13:59:54;;;;;;;11.70;2.33;;;23.70;52.30;;;;;;5024391;28;20041;-70